Time;durP1;ratioP1;P1;durP2;ratioP2;P2;SDS_P1;SDS_P2;PMS_P1;PMS_P2;Temp;Humidity;BMP_temperature;BMP_pressure;BME280_temperature;BME280_humidity;BME280_pressure;Samples;Min_cycle;Max_cycle;Signal;HPM_P1;HPM_P2
2022/11/13 00:00:05;;;;;;;22.60;18.30;;;6.80;90.10;;;;;;5080667;28;20578;-46
2022/11/13 00:02:33;;;;;;;22.07;18.70;;;6.80;90.10;;;;;;5079655;28;20284;-43
2022/11/13 00:04:58;;;;;;;21.53;18.07;;;6.80;90.10;;;;;;5045804;28;20453;-46
2022/11/13 00:07:24;;;;;;;21.93;18.67;;;6.70;90.00;;;;;;5080533;28;20419;-46
2022/11/13 00:09:50;;;;;;;26.03;20.10;;;6.70;90.00;;;;;;5080322;28;20260;-47
2022/11/13 00:12:15;;;;;;;25.83;19.20;;;6.70;90.00;;;;;;5080622;28;20550;-44
2022/11/13 00:14:41;;;;;;;21.60;19.30;;;6.70;90.00;;;;;;5079612;28;20532;-44
2022/11/13 00:17:06;;;;;;;23.63;19.40;;;6.70;90.00;;;;;;5079714;28;20409;-45
2022/11/13 00:19:32;;;;;;;23.13;18.70;;;6.60;89.90;;;;;;5079893;28;20264;-45
2022/11/13 00:21:59;;;;;;;23.87;19.07;;;6.60;89.80;;;;;;5079634;28;20178;-46
2022/11/13 00:24:24;;;;;;;22.13;19.40;;;6.60;89.80;;;;;;5079882;28;20575;-46
2022/11/13 00:26:50;;;;;;;20.40;17.03;;;6.60;89.80;;;;;;5080055;28;20513;-44
2022/11/13 00:29:16;;;;;;;24.40;18.77;;;6.50;89.80;;;;;;5080427;28;20284;-46
2022/11/13 00:31:41;;;;;;;24.10;18.63;;;6.50;89.80;;;;;;5080598;28;20215;-45
2022/11/13 00:34:09;;;;;;;21.70;18.43;;;6.50;89.80;;;;;;5080355;28;20181;-45
2022/11/13 00:36:35;;;;;;;19.00;16.90;;;6.50;89.70;;;;;;5079609;28;20171;-45
2022/11/13 00:39:01;;;;;;;21.53;18.07;;;6.50;89.60;;;;;;5080149;28;20419;-45
2022/11/13 00:41:26;;;;;;;19.50;15.90;;;6.40;89.50;;;;;;5044726;28;20552;-46
2022/11/13 00:43:52;;;;;;;17.27;15.57;;;6.40;89.50;;;;;;5080440;28;20415;-45
2022/11/13 00:46:18;;;;;;;20.53;17.27;;;6.40;89.60;;;;;;5080507;28;20215;-45
2022/11/13 00:48:44;;;;;;;19.37;17.37;;;6.40;89.60;;;;;;5080347;28;20177;-43
2022/11/13 00:51:10;;;;;;;17.97;16.00;;;6.30;89.40;;;;;;5062202;28;20619;-46
2022/11/13 00:53:36;;;;;;;19.63;16.57;;;6.30;89.40;;;;;;5079704;28;20229;-45
2022/11/13 00:56:01;;;;;;;18.57;16.67;;;6.30;89.40;;;;;;5080140;28;20226;-45
2022/11/13 00:58:27;;;;;;;20.07;18.00;;;6.30;89.40;;;;;;5080756;28;20441;-45
2022/11/13 01:00:52;;;;;;;18.60;16.33;;;6.20;89.30;;;;;;5046329;28;20559;-45
2022/11/13 01:03:18;;;;;;;18.30;16.50;;;6.20;89.30;;;;;;5078285;28;20181;-45
2022/11/13 01:05:45;;;;;;;18.60;16.70;;;6.20;89.30;;;;;;5080169;28;20193;-43
2022/11/13 01:08:15;;;;;;;17.57;15.63;;;6.20;89.40;;;;;;5080487;28;20173;-45
2022/11/13 01:10:44;;;;;;;16.50;14.87;;;6.20;89.40;;;;;;5078895;28;20540;-45
2022/11/13 01:13:10;;;;;;;17.97;15.83;;;6.10;89.30;;;;;;5078143;28;20408;-47
2022/11/13 01:15:40;;;;;;;19.20;14.67;;;6.10;89.40;;;;;;5079149;28;20454;-45
2022/11/13 01:18:06;;;;;;;18.87;15.53;;;6.10;89.40;;;;;;5079307;28;20189;-44
2022/11/13 01:20:31;;;;;;;17.40;14.90;;;6.10;89.30;;;;;;5078422;28;20761;-45
2022/11/13 01:22:57;;;;;;;20.17;16.70;;;6.00;89.20;;;;;;5060652;28;20197;-45
2022/11/13 01:25:23;;;;;;;19.67;16.87;;;6.00;89.30;;;;;;5077983;28;20442;-44
2022/11/13 01:27:49;;;;;;;17.10;14.90;;;6.00;89.30;;;;;;5079208;28;20488;-45
2022/11/13 01:30:15;;;;;;;17.03;14.60;;;6.00;89.30;;;;;;5078375;28;20273;-43
2022/11/13 01:32:41;;;;;;;16.60;14.80;;;6.00;89.30;;;;;;5079038;28;20193;-46
2022/11/13 01:35:07;;;;;;;16.60;14.80;;;6.00;89.30;;;;;;5078822;28;20411;-45
2022/11/13 01:37:33;;;;;;;16.17;13.73;;;5.90;89.10;;;;;;5078496;28;20926;-44
2022/11/13 01:39:59;;;;;;;16.50;14.77;;;5.90;89.20;;;;;;5079765;28;20446;-46
2022/11/13 01:42:24;;;;;;;17.03;15.23;;;5.90;89.10;;;;;;5079560;28;20186;-45
2022/11/13 01:44:53;;;;;;;18.23;16.00;;;5.90;89.20;;;;;;5079261;28;20644;-45
2022/11/13 01:47:20;;;;;;;17.70;15.00;;;5.80;89.00;;;;;;5079584;28;20189;-44
2022/11/13 01:49:46;;;;;;;19.07;17.10;;;5.80;88.90;;;;;;5061189;28;20412;-43
2022/11/13 01:52:19;;;;;;;17.13;14.50;;;5.80;89.00;;;;;;5077635;28;20447;-45
2022/11/13 01:54:51;;;;;;;18.20;15.40;;;5.80;89.00;;;;;;5057569;28;20890;-44
2022/11/13 01:57:18;;;;;;;15.97;14.07;;;5.80;88.90;;;;;;5057357;28;20428;-44
2022/11/13 01:59:47;;;;;;;16.50;14.80;;;5.80;88.90;;;;;;5057652;28;20423;-45
2022/11/13 02:02:13;;;;;;;16.57;14.80;;;5.70;88.80;;;;;;5058289;28;20494;-43
2022/11/13 02:04:39;;;;;;;16.20;14.20;;;5.70;88.80;;;;;;5057268;28;20412;-43
2022/11/13 02:07:10;;;;;;;15.67;13.80;;;5.70;88.70;;;;;;5057750;28;20279;-45
2022/11/13 02:09:39;;;;;;;16.30;14.60;;;5.70;88.70;;;;;;5057407;28;20425;-46
2022/11/13 02:12:10;;;;;;;15.60;14.00;;;5.60;88.50;;;;;;5057703;28;20428;-44
2022/11/13 02:14:39;;;;;;;14.83;12.90;;;5.60;88.50;;;;;;5041271;28;20514;-45
2022/11/13 02:17:08;;;;;;;16.10;14.50;;;5.60;88.50;;;;;;5057120;28;20474;-44
2022/11/13 02:19:39;;;;;;;13.77;12.37;;;5.60;88.50;;;;;;5057934;28;20411;-43
2022/11/13 02:22:35;;;;;;;14.17;12.37;;;5.60;88.60;;;;;;5057142;28;20531;-45
2022/11/13 02:25:02;;;;;;;14.77;11.80;;;5.50;88.50;;;;;;5057281;28;20471;-45
2022/11/13 02:27:47;;;;;;;13.20;11.80;;;5.50;88.50;;;;;;5057525;28;20436;-44
2022/11/13 02:30:13;;;;;;;12.77;11.37;;;5.50;88.60;;;;;;5057364;28;20637;-45
2022/11/13 02:32:43;;;;;;;13.60;11.40;;;5.50;88.70;;;;;;5058182;28;20706;-44
2022/11/13 02:35:10;;;;;;;13.17;11.17;;;5.50;88.70;;;;;;5057839;28;20739;-45
2022/11/13 02:37:35;;;;;;;13.17;11.87;;;5.40;88.60;;;;;;5057135;28;20419;-43
2022/11/13 02:40:03;;;;;;;13.57;12.17;;;5.40;88.70;;;;;;5057757;28;20417;-45
2022/11/13 02:42:29;;;;;;;12.60;11.17;;;5.40;89.40;;;;;;5057574;28;20261;-45
2022/11/13 02:44:55;;;;;;;11.47;10.37;;;5.40;88.70;;;;;;5057514;28;20503;-46
2022/11/13 02:47:20;;;;;;;12.90;11.60;;;5.40;88.70;;;;;;5057204;28;20180;-44
2022/11/13 02:49:46;;;;;;;13.93;11.47;;;5.30;88.70;;;;;;5057530;28;20491;-45
2022/11/13 02:52:11;;;;;;;12.90;11.60;;;5.30;88.70;;;;;;5067607;28;20189;-45
2022/11/13 02:54:37;;;;;;;11.73;10.53;;;5.30;88.70;;;;;;5090146;28;20323;-45
2022/11/13 02:57:03;;;;;;;11.60;10.40;;;5.30;88.80;;;;;;5079505;28;20245;-46
2022/11/13 02:59:28;;;;;;;11.13;10.03;;;5.30;88.90;;;;;;5080167;28;20244;-44
2022/11/13 03:01:54;;;;;;;12.07;10.87;;;5.20;88.80;;;;;;5098080;28;20196;-46
2022/11/13 03:04:19;;;;;;;12.50;10.67;;;5.20;88.80;;;;;;5098207;28;20421;-43
2022/11/13 03:06:45;;;;;;;12.10;10.90;;;5.20;88.90;;;;;;5079417;28;20193;-46
2022/11/13 03:09:11;;;;;;;11.47;10.10;;;5.20;88.90;;;;;;5098148;28;20177;-43
2022/11/13 03:11:36;;;;;;;11.07;9.97;;;5.20;88.90;;;;;;5098282;28;20256;-44
2022/11/13 03:14:02;;;;;;;12.60;10.60;;;5.20;89.00;;;;;;5097303;28;20222;-44
2022/11/13 03:16:28;;;;;;;11.57;10.37;;;5.10;88.70;;;;;;5097967;28;20669;-46
2022/11/13 03:18:55;;;;;;;11.20;10.10;;;5.10;88.80;;;;;;5098089;28;20175;-45
2022/11/13 03:21:21;;;;;;;12.30;11.10;;;5.10;88.80;;;;;;5098187;28;20185;-45
2022/11/13 03:23:47;;;;;;;13.10;11.30;;;5.10;88.90;;;;;;5097400;28;20403;-45
2022/11/13 03:26:16;;;;;;;13.47;10.77;;;5.10;89.00;;;;;;5097408;28;20177;-44
2022/11/13 03:28:42;;;;;;;12.67;11.20;;;5.10;89.10;;;;;;5096005;28;20453;-46
2022/11/13 03:31:08;;;;;;;11.20;10.03;;;5.10;89.30;;;;;;5097339;28;20530;-43
2022/11/13 03:33:33;;;;;;;11.47;10.37;;;5.10;89.50;;;;;;5096778;28;20422;-45
2022/11/13 03:35:59;;;;;;;11.20;10.10;;;5.10;89.60;;;;;;5097096;28;20191;-46
2022/11/13 03:38:25;;;;;;;12.87;11.57;;;5.10;89.80;;;;;;5079018;28;20593;-44
2022/11/13 03:40:51;;;;;;;12.00;10.23;;;5.10;90.00;;;;;;5097256;28;20185;-45
2022/11/13 03:43:16;;;;;;;12.07;10.87;;;5.10;90.00;;;;;;5097296;28;20168;-46
2022/11/13 03:45:46;;;;;;;11.10;10.00;;;5.10;90.10;;;;;;5096393;28;20430;-43
2022/11/13 03:48:12;;;;;;;11.90;10.50;;;5.10;90.10;;;;;;5097049;28;20206;-44
2022/11/13 03:50:39;;;;;;;12.70;11.07;;;5.10;90.20;;;;;;5097154;28;20887;-44
2022/11/13 03:53:04;;;;;;;11.47;10.27;;;5.10;90.20;;;;;;5097479;28;20468;-45
2022/11/13 03:55:30;;;;;;;12.73;10.77;;;5.00;90.20;;;;;;5097184;28;20446;-46
2022/11/13 03:57:55;;;;;;;12.70;10.73;;;5.00;90.20;;;;;;5097349;28;20173;-44
2022/11/13 04:00:21;;;;;;;11.83;10.63;;;5.00;90.10;;;;;;5097216;28;20254;-45
2022/11/13 04:02:47;;;;;;;12.10;10.83;;;5.00;90.10;;;;;;5096759;28;20211;-45
2022/11/13 04:05:12;;;;;;;12.03;10.73;;;5.00;90.10;;;;;;5096707;28;20187;-44
2022/11/13 04:07:38;;;;;;;12.47;11.17;;;4.90;90.10;;;;;;5097225;28;20259;-44
2022/11/13 04:10:04;;;;;;;15.57;11.67;;;4.90;90.00;;;;;;5097133;28;20210;-46
2022/11/13 04:12:29;;;;;;;14.87;11.70;;;4.90;90.00;;;;;;5097570;28;20189;-44
2022/11/13 04:14:55;;;;;;;13.83;11.60;;;4.90;90.10;;;;;;5097087;28;20407;-46
2022/11/13 04:17:21;;;;;;;13.00;11.60;;;4.90;90.00;;;;;;5097114;28;20181;-44
2022/11/13 04:19:46;;;;;;;13.00;11.10;;;4.80;90.00;;;;;;5097292;28;20263;-43
2022/11/13 04:22:12;;;;;;;13.73;12.23;;;4.80;90.00;;;;;;5096648;28;20280;-46
2022/11/13 04:24:37;;;;;;;12.13;10.83;;;4.80;90.00;;;;;;5096787;28;20176;-45
2022/11/13 04:27:03;;;;;;;12.90;11.50;;;4.80;90.00;;;;;;5079303;28;20164;-44
2022/11/13 04:29:28;;;;;;;12.60;11.30;;;4.80;90.00;;;;;;5097115;28;20196;-44
2022/11/13 04:31:54;;;;;;;11.93;10.20;;;4.80;90.00;;;;;;5096928;28;20220;-44
2022/11/13 04:34:20;;;;;;;13.00;11.10;;;4.80;90.10;;;;;;5097637;28;20187;-44
2022/11/13 04:36:45;;;;;;;12.63;11.07;;;4.80;90.10;;;;;;5096811;28;20177;-45
2022/11/13 04:39:11;;;;;;;11.43;10.30;;;4.80;90.40;;;;;;5096214;28;20176;-44
2022/11/13 04:44:21;;;;;;;11.17;10.17;;;4.80;90.20;;;;;;5100033;28;20192;-45
2022/11/13 04:46:46;;;;;;;10.43;9.43;;;4.70;90.10;;;;;;5100333;28;20442;-48
2022/11/13 04:49:12;;;;;;;11.20;10.00;;;4.70;90.10;;;;;;5099485;28;20192;-45
2022/11/13 04:51:37;;;;;;;10.47;9.57;;;4.70;90.10;;;;;;5077396;28;20213;-48
2022/11/13 04:54:03;;;;;;;10.30;9.30;;;4.70;90.20;;;;;;5087534;28;20282;-45
2022/11/13 04:56:29;;;;;;;10.30;9.10;;;4.70;90.20;;;;;;5099670;28;20180;-43
2022/11/13 04:58:54;;;;;;;9.23;8.33;;;4.70;90.20;;;;;;5099309;28;20492;-44
2022/11/13 05:01:20;;;;;;;11.40;10.33;;;4.70;90.20;;;;;;5100627;28;20539;-45
2022/11/13 05:03:45;;;;;;;10.43;9.37;;;4.60;90.20;;;;;;5100980;28;20258;-44
2022/11/13 05:06:11;;;;;;;10.47;9.40;;;4.60;90.20;;;;;;5099885;28;20181;-44
2022/11/13 05:08:37;;;;;;;10.20;9.20;;;4.60;90.10;;;;;;5099970;28;20196;-45
2022/11/13 05:11:03;;;;;;;11.57;9.60;;;4.60;90.10;;;;;;5100792;28;20200;-44
2022/11/13 05:13:33;;;;;;;11.23;10.13;;;4.60;90.10;;;;;;5100644;28;20212;-49
2022/11/13 05:16:03;;;;;;;11.50;9.80;;;4.60;90.10;;;;;;5100629;28;20411;-46
2022/11/13 05:18:29;;;;;;;10.73;9.63;;;4.60;90.10;;;;;;5100216;28;20433;-44
2022/11/13 05:20:55;;;;;;;11.00;9.90;;;4.50;90.10;;;;;;5100381;28;20418;-47
2022/11/13 05:23:21;;;;;;;10.97;9.50;;;4.50;90.10;;;;;;5099428;28;20452;-44
2022/11/13 05:25:46;;;;;;;10.73;9.63;;;4.50;90.40;;;;;;5100027;28;20173;-45
2022/11/13 05:28:12;;;;;;;10.90;9.90;;;4.50;90.10;;;;;;5099886;28;20185;-43
2022/11/13 05:30:37;;;;;;;10.37;9.33;;;4.50;90.10;;;;;;5100304;28;20225;-44
2022/11/13 05:33:03;;;;;;;11.00;9.80;;;4.50;90.10;;;;;;5099903;28;20434;-46
2022/11/13 05:35:28;;;;;;;11.10;10.00;;;4.50;90.10;;;;;;5100019;28;20468;-46
2022/11/13 05:37:54;;;;;;;9.70;8.80;;;4.50;90.10;;;;;;5098719;28;20726;-46
2022/11/13 05:40:20;;;;;;;10.33;9.30;;;4.40;90.10;;;;;;5098690;28;20326;-44
2022/11/13 05:42:45;;;;;;;10.40;9.33;;;4.50;90.20;;;;;;5099001;28;20189;-44
2022/11/13 05:45:11;;;;;;;11.20;10.00;;;4.50;90.20;;;;;;5098830;28;20205;-45
2022/11/13 05:47:36;;;;;;;10.07;9.07;;;4.50;90.20;;;;;;5098474;28;20189;-44
2022/11/13 05:50:02;;;;;;;10.87;9.77;;;4.50;90.30;;;;;;5099172;28;20183;-44
2022/11/13 05:52:28;;;;;;;10.97;9.70;;;4.50;90.30;;;;;;5100095;28;20447;-45
2022/11/13 05:54:54;;;;;;;10.17;9.17;;;4.50;90.40;;;;;;5099418;28;20477;-45
2022/11/13 05:57:19;;;;;;;10.43;9.13;;;4.50;90.40;;;;;;5100005;28;20177;-45
2022/11/13 05:59:45;;;;;;;10.10;9.07;;;4.50;90.50;;;;;;5099781;28;20169;-45
2022/11/13 06:02:10;;;;;;;10.53;9.43;;;4.50;90.50;;;;;;5099143;28;20250;-45
2022/11/13 06:04:36;;;;;;;10.47;9.37;;;4.50;90.60;;;;;;5099341;28;20184;-53
2022/11/13 06:07:02;;;;;;;10.73;9.73;;;4.50;90.60;;;;;;5099619;28;20515;-45
2022/11/13 06:09:27;;;;;;;10.50;9.50;;;4.50;90.60;;;;;;5081993;28;20598;-45
2022/11/13 06:11:53;;;;;;;9.87;8.97;;;4.50;90.60;;;;;;5099188;28;20243;-44
2022/11/13 06:14:18;;;;;;;11.10;10.00;;;4.40;90.70;;;;;;5099607;28;20169;-45
2022/11/13 06:16:45;;;;;;;10.20;9.30;;;4.30;90.90;;;;;;5099975;28;20200;-46
2022/11/13 06:19:11;;;;;;;10.00;9.10;;;4.20;91.10;;;;;;5099944;28;20181;-45
2022/11/13 06:21:39;;;;;;;10.53;9.53;;;4.20;91.40;;;;;;5098927;28;20467;-44
2022/11/13 06:24:05;;;;;;;9.77;8.87;;;4.20;91.50;;;;;;5099162;28;20247;-44
2022/11/13 06:26:33;;;;;;;12.90;11.77;;;4.10;91.70;;;;;;5099162;28;20451;-43
2022/11/13 06:28:59;;;;;;;11.37;10.27;;;4.10;91.90;;;;;;5099622;28;20445;-44
2022/11/13 06:31:31;;;;;;;11.87;10.67;;;4.10;91.90;;;;;;5099092;28;20463;-43
2022/11/13 06:33:58;;;;;;;13.43;12.00;;;4.10;92.00;;;;;;5098794;28;20511;-44
2022/11/13 06:36:26;;;;;;;13.77;12.37;;;4.00;92.10;;;;;;5099412;28;20476;-43
2022/11/13 06:38:52;;;;;;;13.53;12.10;;;4.10;92.10;;;;;;5098919;28;20415;-45
2022/11/13 06:41:21;;;;;;;12.73;11.43;;;4.10;92.10;;;;;;5098266;28;20693;-43
2022/11/13 06:43:47;;;;;;;13.80;12.30;;;4.10;92.00;;;;;;5099298;28;20513;-46
2022/11/13 06:46:15;;;;;;;12.83;11.50;;;4.10;92.10;;;;;;5080612;28;20484;-43
2022/11/13 06:48:41;;;;;;;12.50;11.20;;;4.00;92.10;;;;;;5098319;28;20480;-45
2022/11/13 06:51:08;;;;;;;13.40;12.10;;;4.00;92.10;;;;;;5079819;28;20899;-44
2022/11/13 06:53:34;;;;;;;12.17;10.97;;;4.10;92.10;;;;;;5077922;28;20213;-44
2022/11/13 06:56:00;;;;;;;11.00;9.90;;;4.10;92.10;;;;;;5098541;28;20399;-44
2022/11/13 06:58:26;;;;;;;11.63;10.43;;;4.20;92.10;;;;;;5097311;28;20219;-44
2022/11/13 07:00:52;;;;;;;11.63;10.50;;;4.20;92.00;;;;;;5096588;28;20984;-43
2022/11/13 07:03:20;;;;;;;10.40;9.50;;;4.30;92.00;;;;;;5095650;28;20185;-45
2022/11/13 07:05:46;;;;;;;10.27;9.37;;;4.40;91.90;;;;;;5095296;28;20404;-43
2022/11/13 07:08:12;;;;;;;10.90;9.80;;;4.50;91.70;;;;;;5095354;28;20896;-44
2022/11/13 07:10:38;;;;;;;10.33;9.43;;;4.50;91.60;;;;;;5095265;28;20230;-43
2022/11/13 07:13:04;;;;;;;10.30;9.40;;;4.60;91.50;;;;;;5095252;28;20415;-44
2022/11/13 07:15:36;;;;;;;9.93;9.03;;;4.80;91.30;;;;;;5096779;28;20821;-46
2022/11/13 07:18:02;;;;;;;11.17;10.03;;;4.90;91.10;;;;;;5096894;28;20219;-44
2022/11/13 07:20:29;;;;;;;10.27;9.27;;;5.00;90.90;;;;;;5097094;28;20425;-46
2022/11/13 07:22:55;;;;;;;10.90;9.90;;;5.10;90.70;;;;;;5098299;28;20433;-43
2022/11/13 07:25:21;;;;;;;10.63;9.60;;;5.20;90.60;;;;;;5097955;28;20506;-45
2022/11/13 07:27:47;;;;;;;10.20;9.27;;;5.30;90.50;;;;;;5097711;28;20599;-46
2022/11/13 07:30:12;;;;;;;10.40;9.30;;;5.40;90.40;;;;;;5096523;28;20193;-44
2022/11/13 07:32:38;;;;;;;9.90;9.00;;;5.50;90.30;;;;;;5096705;28;20293;-44
2022/11/13 07:35:04;;;;;;;10.20;9.20;;;5.60;90.20;;;;;;5079262;28;20176;-45
2022/11/13 07:37:30;;;;;;;10.70;9.77;;;5.70;90.10;;;;;;5096862;28;20186;-44
2022/11/13 07:39:55;;;;;;;12.03;10.90;;;5.90;90.00;;;;;;5096622;28;20410;-46
2022/11/13 07:42:21;;;;;;;11.73;10.53;;;6.00;89.80;;;;;;5096359;28;20651;-47
2022/11/13 07:44:46;;;;;;;12.77;11.57;;;6.30;89.80;;;;;;5079353;28;20222;-44
2022/11/13 07:47:12;;;;;;;11.90;10.67;;;6.60;89.30;;;;;;5097657;28;20187;-44
2022/11/13 07:49:38;;;;;;;11.40;10.30;;;6.80;88.50;;;;;;5097051;28;20173;-45
2022/11/13 07:52:03;;;;;;;12.63;11.43;;;7.20;88.20;;;;;;5096606;28;20255;-44
2022/11/13 07:54:29;;;;;;;10.93;9.80;;;7.60;87.10;;;;;;5096713;28;20315;-44
2022/11/13 07:56:55;;;;;;;10.77;9.73;;;7.90;86.10;;;;;;5096716;28;20200;-45
2022/11/13 07:59:20;;;;;;;10.70;9.80;;;8.20;85.00;;;;;;5096547;28;20458;-43
2022/11/13 08:01:46;;;;;;;11.27;10.17;;;8.40;84.20;;;;;;5096357;28;20195;-45
2022/11/13 08:04:11;;;;;;;12.37;11.20;;;8.70;83.30;;;;;;5096256;28;20253;-46
2022/11/13 08:06:37;;;;;;;12.63;11.53;;;8.80;82.30;;;;;;5096663;28;20258;-44
2022/11/13 08:09:03;;;;;;;11.83;10.77;;;9.00;81.80;;;;;;5097287;28;20169;-45
2022/11/13 08:11:29;;;;;;;12.90;11.70;;;9.30;81.20;;;;;;5096239;28;20211;-44
2022/11/13 08:13:55;;;;;;;12.83;11.63;;;9.50;80.60;;;;;;5096389;28;20422;-46
2022/11/13 08:16:22;;;;;;;12.13;11.03;;;9.90;79.70;;;;;;5100655;28;20167;-44
2022/11/13 08:18:48;;;;;;;10.97;9.90;;;10.40;77.20;;;;;;5100405;28;20267;-44
2022/11/13 08:21:14;;;;;;;12.60;11.47;;;11.00;76.10;;;;;;5100819;28;20436;-45
2022/11/13 08:23:40;;;;;;;12.70;11.50;;;11.60;74.20;;;;;;5100972;28;20424;-46
2022/11/13 08:26:07;;;;;;;12.73;11.63;;;12.30;72.70;;;;;;5101571;28;20200;-46
2022/11/13 08:28:33;;;;;;;12.40;11.20;;;13.20;70.50;;;;;;5100825;28;20439;-50
2022/11/13 08:30:58;;;;;;;10.33;9.43;;;14.20;67.60;;;;;;5101102;28;20454;-45
2022/11/13 08:33:24;;;;;;;11.20;10.30;;;15.10;64.40;;;;;;5100777;28;20914;-45
2022/11/13 08:35:58;;;;;;;10.90;10.00;;;16.10;61.00;;;;;;5100061;28;20176;-46
2022/11/13 08:38:24;;;;;;;11.70;10.73;;;17.20;58.00;;;;;;5099938;28;20274;-45
2022/11/13 08:40:50;;;;;;;11.03;10.13;;;18.10;55.60;;;;;;5099901;28;20505;-43
2022/11/13 08:43:15;;;;;;;9.63;8.83;;;19.00;53.00;;;;;;5099184;28;20530;-45
2022/11/13 08:45:44;;;;;;;8.90;8.20;;;19.90;50.90;;;;;;5098407;28;20506;-46
2022/11/13 08:48:09;;;;;;;7.67;7.07;;;20.70;48.90;;;;;;5098781;28;20686;-46
2022/11/13 08:50:35;;;;;;;8.43;7.73;;;21.50;47.00;;;;;;5097999;28;20540;-45
2022/11/13 08:53:01;;;;;;;9.07;8.37;;;22.30;45.50;;;;;;5098284;28;20188;-48
2022/11/13 08:55:27;;;;;;;8.20;7.60;;;22.90;44.50;;;;;;5097954;28;20223;-44
2022/11/13 08:57:52;;;;;;;7.73;7.10;;;23.60;43.10;;;;;;5081386;28;20578;-46
2022/11/13 09:00:19;;;;;;;8.40;7.70;;;24.20;42.30;;;;;;5099817;28;20479;-45
2022/11/13 09:02:44;;;;;;;8.13;7.53;;;24.80;41.30;;;;;;5099625;28;20222;-43
2022/11/13 09:05:10;;;;;;;7.33;6.83;;;25.30;40.40;;;;;;5099076;28;20483;-45
2022/11/13 09:07:36;;;;;;;7.93;7.33;;;26.10;40.10;;;;;;5097667;28;20177;-44
2022/11/13 09:10:02;;;;;;;7.90;7.40;;;26.60;38.60;;;;;;5075919;28;20181;-49
2022/11/13 09:12:27;;;;;;;8.60;7.90;;;27.30;37.70;;;;;;5078650;28;20644;-46
2022/11/13 09:14:53;;;;;;;7.73;7.20;;;28.00;36.70;;;;;;5079524;28;20477;-46
2022/11/13 09:17:20;;;;;;;7.53;7.00;;;28.90;35.50;;;;;;5079643;28;20245;-44
2022/11/13 09:19:45;;;;;;;8.27;7.67;;;29.50;35.00;;;;;;5078176;28;20180;-43
2022/11/13 09:22:11;;;;;;;8.00;7.40;;;30.20;33.90;;;;;;5079196;28;20428;-45
2022/11/13 09:24:37;;;;;;;8.40;7.80;;;30.90;32.90;;;;;;5077203;28;20276;-46
2022/11/13 09:27:02;;;;;;;9.10;8.40;;;31.50;32.20;;;;;;5076890;28;20176;-46
2022/11/13 09:29:28;;;;;;;8.80;8.20;;;32.10;31.30;;;;;;5077077;28;20192;-43
2022/11/13 09:31:54;;;;;;;7.50;7.00;;;32.70;30.40;;;;;;5077802;28;20273;-44
2022/11/13 09:34:21;;;;;;;8.57;7.93;;;33.50;29.70;;;;;;5077269;28;20192;-45
2022/11/13 09:36:49;;;;;;;8.30;7.70;;;34.20;29.00;;;;;;5078173;28;20405;-43
2022/11/13 09:39:15;;;;;;;8.00;7.40;;;34.50;28.70;;;;;;5076920;28;20430;-46
2022/11/13 09:41:47;;;;;;;8.17;7.57;;;35.20;28.20;;;;;;5077818;28;20432;-44
2022/11/13 09:44:24;;;;;;;8.00;7.30;;;35.50;27.90;;;;;;5076932;28;20842;-47
2022/11/13 09:46:54;;;;;;;6.87;6.37;;;36.00;27.50;;;;;;5077711;28;20402;-47
2022/11/13 09:49:34;;;;;;;7.60;7.00;;;36.40;27.10;;;;;;5078213;28;20447;-45
2022/11/13 09:52:04;;;;;;;6.97;6.47;;;36.50;27.00;;;;;;5077089;28;20450;-44
2022/11/13 09:54:30;;;;;;;6.80;6.30;;;36.50;26.90;;;;;;5089597;28;20447;-45
2022/11/13 09:57:02;;;;;;;6.70;6.20;;;36.50;26.90;;;;;;5098184;28;20431;-45
2022/11/13 09:59:38;;;;;;;6.40;5.90;;;36.40;26.50;;;;;;5097982;28;20259;-49
2022/11/13 10:02:07;;;;;;;5.87;5.47;;;36.40;26.20;;;;;;5097603;28;20543;-46
2022/11/13 10:05:11;;;;;;;5.30;4.90;;;36.10;26.00;;;;;;5097554;28;20386;-46
2022/11/13 10:07:39;;;;;;;5.87;5.47;;;35.80;26.30;;;;;;5092023;28;20442;-43
2022/11/13 10:10:24;;;;;;;5.40;4.90;;;35.80;26.30;;;;;;5095002;28;20391;-46
2022/11/13 10:12:51;;;;;;;5.17;4.80;;;35.70;26.50;;;;;;5097340;28;20418;-49
2022/11/13 10:15:18;;;;;;;4.80;4.50;;;35.30;26.60;;;;;;5079826;28;20751;-46
2022/11/13 10:18:01;;;;;;;4.87;4.47;;;35.30;26.60;;;;;;5097039;28;20467;-46
2022/11/13 10:20:45;;;;;;;5.20;4.80;;;35.00;26.60;;;;;;5077955;28;20393;-46
2022/11/13 10:23:20;;;;;;;4.93;4.53;;;35.00;26.70;;;;;;5080463;28;20446;-45
2022/11/13 10:25:50;;;;;;;4.83;4.33;;;35.20;26.40;;;;;;5073460;28;20718;-47
2022/11/13 10:28:22;;;;;;;4.93;4.53;;;35.20;26.40;;;;;;5080649;28;20450;-44
2022/11/13 10:30:48;;;;;;;5.60;5.20;;;35.50;26.40;;;;;;5091215;28;20541;-45
2022/11/13 10:33:17;;;;;;;5.27;4.87;;;35.80;26.00;;;;;;5095388;28;20716;-44
2022/11/13 10:36:02;;;;;;;6.07;5.60;;;36.00;25.70;;;;;;5078869;28;20428;-45
2022/11/13 10:38:37;;;;;;;6.03;5.60;;;36.50;25.20;;;;;;5078579;28;20441;-44
2022/11/13 10:41:14;;;;;;;6.00;5.50;;;36.80;25.10;;;;;;5079243;28;20424;-47
2022/11/13 10:43:52;;;;;;;5.70;5.30;;;37.40;25.20;;;;;;5097785;28;20424;-44
2022/11/13 10:46:24;;;;;;;5.70;5.20;;;38.10;24.80;;;;;;5093155;28;20713;-45
2022/11/13 10:48:51;;;;;;;5.20;4.83;;;38.80;24.50;;;;;;5091700;28;20425;-43
2022/11/13 10:51:24;;;;;;;6.13;5.70;;;39.60;24.10;;;;;;5070994;28;20867;-45
2022/11/13 10:53:50;;;;;;;5.73;5.33;;;40.40;23.60;;;;;;5084773;28;20464;-44
2022/11/13 10:56:29;;;;;;;5.60;5.10;;;41.00;23.50;;;;;;5048309;28;20776;-44
2022/11/13 10:59:00;;;;;;;5.80;5.40;;;41.70;23.00;;;;;;5043890;28;20448;-44
2022/11/13 11:01:27;;;;;;;5.23;4.83;;;41.90;23.00;;;;;;5056006;28;20433;-44
2022/11/13 11:03:53;;;;;;;5.50;5.10;;;42.20;22.80;;;;;;5055485;28;20418;-44
2022/11/13 11:06:19;;;;;;;6.70;6.20;;;42.70;22.70;;;;;;5062377;28;20415;-46
2022/11/13 11:08:45;;;;;;;5.60;5.20;;;43.20;22.30;;;;;;5058115;28;20449;-45
2022/11/13 11:14:14;;;;;;;5.07;4.77;;;43.70;21.80;;;;;;5069757;28;20455;-45
2022/11/13 11:16:42;;;;;;;5.27;4.97;;;43.50;21.90;;;;;;5084073;28;20852;-47
2022/11/13 11:19:10;;;;;;;4.97;4.67;;;43.50;22.10;;;;;;5082866;28;20432;-46
2022/11/13 11:21:40;;;;;;;5.33;4.93;;;43.70;22.10;;;;;;5085467;28;20474;-45
2022/11/13 11:24:37;;;;;;;5.10;4.80;;;44.10;21.90;;;;;;5093420;28;20452;-47
2022/11/13 11:27:25;;;;;;;5.87;5.47;;;44.40;21.80;;;;;;5054627;28;20436;-45
2022/11/13 11:30:11;;;;;;;5.00;4.70;;;44.70;21.60;;;;;;5057495;28;20404;-45
2022/11/13 11:32:42;;;;;;;5.40;5.07;;;44.70;21.60;;;;;;5058001;28;20435;-46
2022/11/13 11:35:17;;;;;;;5.47;5.07;;;45.00;21.30;;;;;;5057144;28;20467;-45
2022/11/13 11:38:03;;;;;;;4.90;4.60;;;45.00;21.30;;;;;;5074909;28;20425;-45
2022/11/13 11:40:38;;;;;;;5.30;4.90;;;45.20;21.20;;;;;;5056981;28;20471;-45
2022/11/13 11:43:31;;;;;;;4.63;4.33;;;45.20;21.40;;;;;;5057580;28;20427;-45
2022/11/13 11:45:57;;;;;;;5.03;4.70;;;45.20;21.60;;;;;;5067416;28;20425;-46
2022/11/13 11:48:27;;;;;;;6.10;5.70;;;45.40;21.60;;;;;;5066689;28;20959;-46
2022/11/13 11:51:03;;;;;;;6.00;5.40;;;45.20;21.60;;;;;;5038451;28;20248;-45
2022/11/13 11:53:52;;;;;;;5.10;4.70;;;45.50;21.60;;;;;;5021695;28;20747;-45
2022/11/13 11:56:27;;;;;;;5.70;5.30;;;46.10;21.50;;;;;;5055478;28;20399;-45
2022/11/13 11:59:18;;;;;;;6.03;5.63;;;46.10;21.00;;;;;;5069640;28;20421;-46
2022/11/13 12:02:08;;;;;;;4.93;4.43;;;46.40;21.10;;;;;;5075772;28;20475;-48
2022/11/13 12:04:52;;;;;;;5.50;5.10;;;46.90;21.10;;;;;;5063110;28;20563;-45
2022/11/13 12:07:47;;;;;;;4.70;4.30;;;46.80;21.20;;;;;;5074171;28;20425;-46
2022/11/13 12:10:36;;;;;;;5.17;4.77;;;46.60;21.20;;;;;;5074092;28;20791;-46
2022/11/13 12:13:11;;;;;;;4.40;4.10;;;46.80;21.10;;;;;;5056448;28;20431;-45
2022/11/13 12:15:46;;;;;;;5.20;4.80;;;46.90;21.00;;;;;;5074797;28;20681;-45
2022/11/13 12:18:29;;;;;;;4.63;4.33;;;47.40;20.60;;;;;;5076709;28;20813;-48
2022/11/13 12:21:20;;;;;;;5.27;4.97;;;47.40;20.30;;;;;;5058173;28;20515;-49
2022/11/13 12:24:15;;;;;;;4.73;4.43;;;47.30;20.10;;;;;;5065247;28;20462;-46
2022/11/13 12:26:45;;;;;;;5.13;4.73;;;46.60;20.60;;;;;;5055159;28;20523;-46
2022/11/13 12:29:23;;;;;;;4.53;4.23;;;46.80;20.70;;;;;;5056072;28;20845;-45
2022/11/13 12:32:02;;;;;;;4.70;4.40;;;46.60;20.70;;;;;;5062742;28;20857;-46
2022/11/13 12:34:33;;;;;;;4.50;4.17;;;46.80;20.60;;;;;;5037863;28;20406;-45
2022/11/13 12:37:07;;;;;;;4.80;4.40;;;47.10;20.80;;;;;;5072526;28;20898;-45
2022/11/13 12:39:46;;;;;;;4.87;4.40;;;46.90;20.50;;;;;;5045614;28;20481;-44
2022/11/13 12:42:42;;;;;;;4.43;4.13;;;46.80;20.60;;;;;;5057099;28;20465;-47
2022/11/13 12:45:45;;;;;;;4.27;3.97;;;47.20;20.30;;;;;;5062785;28;20424;-44
2022/11/13 12:48:13;;;;;;;4.43;4.13;;;47.10;20.30;;;;;;5061331;28;20488;-45
2022/11/13 12:50:39;;;;;;;4.87;4.57;;;47.10;20.60;;;;;;5075381;28;20900;-45
2022/11/13 12:53:12;;;;;;;4.27;3.97;;;47.30;20.20;;;;;;5053960;28;20447;-46